Time,TemperatureF,DewpointF,PressureIn,WindDirection,WindDirectionDegrees,WindSpeedMPH,WindSpeedGustMPH,Humidity,HourlyPrecipIn,Conditions,Clouds,dailyrainin,SoftwareType,DateUTC
2013-04-02 00:00:00,34.4,19.8,29.56,SW,225,0.0,0.0,55,0.00,,,0.00,WUHU216HW,2013-04-02 04:00:00,
2013-04-02 00:05:00,34.4,19.8,29.56,SW,225,0.0,0.0,55,0.00,,,0.00,WUHU216HW,2013-04-02 04:05:00,
2013-04-02 00:29:00,33.1,19.4,29.56,SSE,158,0.0,0.0,57,0.00,,,0.00,WUHU216HW,2013-04-02 04:29:00,
2013-04-02 00:34:00,33.1,19.4,29.56,SSE,158,0.0,0.0,57,0.00,,,0.00,WUHU216HW,2013-04-02 04:34:00,
2013-04-02 01:00:00,32.6,19.5,29.57,SSE,158,0.4,0.4,58,0.00,,,0.00,WUHU216HW,2013-04-02 05:00:00,
2013-04-02 01:05:00,32.6,19.5,29.57,SSE,158,0.4,0.4,58,0.00,,,0.00,WUHU216HW,2013-04-02 05:05:00,
2013-04-02 01:30:00,31.3,19.1,29.58,SSW,203,0.0,0.0,60,0.00,,,0.00,WUHU216HW,2013-04-02 05:30:00,
2013-04-02 01:35:00,31.3,19.1,29.58,SSW,203,0.0,0.0,60,0.00,,,0.00,WUHU216HW,2013-04-02 05:35:00,
2013-04-02 02:00:00,30.6,19.1,29.57,East,90,0.0,0.0,62,0.00,,,0.00,WUHU216HW,2013-04-02 06:00:00,
2013-04-02 02:05:00,30.6,19.1,29.57,East,90,0.0,0.0,62,0.00,,,0.00,WUHU216HW,2013-04-02 06:05:00,
2013-04-02 02:30:00,30.4,18.9,29.57,WNW,293,0.0,0.0,62,0.00,,,0.00,WUHU216HW,2013-04-02 06:30:00,
2013-04-02 02:35:00,30.4,18.9,29.57,WNW,293,0.0,0.0,62,0.00,,,0.00,WUHU216HW,2013-04-02 06:35:00,
2013-04-02 02:59:00,29.9,18.4,29.57,SW,225,0.0,0.0,62,0.00,,,0.00,WUHU216HW,2013-04-02 06:59:00,
2013-04-02 03:05:00,29.9,18.4,29.57,SW,225,0.0,0.0,62,0.00,,,0.00,WUHU216HW,2013-04-02 07:05:00,
2013-04-02 03:30:00,29.2,18.1,29.56,North,0,1.1,1.1,63,0.00,,,0.00,WUHU216HW,2013-04-02 07:30:00,
2013-04-02 03:35:00,29.2,18.1,29.56,North,0,1.1,1.1,63,0.00,,,0.00,WUHU216HW,2013-04-02 07:35:00,
2013-04-02 04:00:00,32.2,20.0,29.57,WNW,293,1.8,1.8,60,0.00,,,0.00,WUHU216HW,2013-04-02 08:00:00,
2013-04-02 04:05:00,32.2,20.0,29.57,WNW,293,1.8,1.8,60,0.00,,,0.00,WUHU216HW,2013-04-02 08:05:00,
2013-04-02 04:30:00,33.8,19.7,29.57,WNW,293,6.0,6.0,56,0.00,,,0.00,WUHU216HW,2013-04-02 08:30:00,
2013-04-02 04:35:00,33.8,19.7,29.57,WNW,293,6.0,6.0,56,0.00,,,0.00,WUHU216HW,2013-04-02 08:35:00,
2013-04-02 05:00:00,34.0,19.0,29.58,WNW,293,5.4,5.4,54,0.00,,,0.00,WUHU216HW,2013-04-02 09:00:00,
2013-04-02 05:05:00,34.0,19.0,29.58,WNW,293,5.4,5.4,54,0.00,,,0.00,WUHU216HW,2013-04-02 09:05:00,
2013-04-02 05:30:00,34.0,18.2,29.59,NNW,338,7.4,7.4,52,0.00,,,0.00,WUHU216HW,2013-04-02 09:30:00,
2013-04-02 05:35:00,34.0,18.2,29.59,NNW,338,7.4,7.4,52,0.00,,,0.00,WUHU216HW,2013-04-02 09:35:00,
2013-04-02 05:59:00,33.7,17.4,29.60,WNW,293,4.0,4.0,51,0.00,,,0.00,WUHU216HW,2013-04-02 09:59:00,
2013-04-02 06:04:00,33.7,17.4,29.60,WNW,293,4.0,4.0,51,0.00,,,0.00,WUHU216HW,2013-04-02 10:04:00,
2013-04-02 06:30:00,33.3,17.0,29.61,WNW,293,2.5,2.5,51,0.00,,,0.00,WUHU216HW,2013-04-02 10:30:00,
2013-04-02 06:35:00,33.3,17.0,29.61,WNW,293,2.5,2.5,51,0.00,,,0.00,WUHU216HW,2013-04-02 10:35:00,
2013-04-02 06:59:00,33.3,16.1,29.62,WNW,293,3.1,3.1,49,0.00,,,0.00,WUHU216HW,2013-04-02 10:59:00,
2013-04-02 07:05:00,33.3,16.1,29.62,WNW,293,3.1,3.1,49,0.00,,,0.00,WUHU216HW,2013-04-02 11:05:00,
2013-04-02 07:30:00,33.5,16.7,29.64,West,270,2.2,2.2,50,0.00,,,0.00,WUHU216HW,2013-04-02 11:30:00,
2013-04-02 07:35:00,33.5,16.7,29.64,West,270,2.2,2.2,50,0.00,,,0.00,WUHU216HW,2013-04-02 11:35:00,
2013-04-02 07:59:00,34.6,16.8,29.66,West,270,2.5,2.5,48,0.00,,,0.00,WUHU216HW,2013-04-02 11:59:00,
2013-04-02 08:05:00,34.6,16.8,29.66,West,270,2.5,2.5,48,0.00,,,0.00,WUHU216HW,2013-04-02 12:05:00,
2013-04-02 08:30:00,35.6,14.8,29.67,WNW,293,7.4,7.4,42,0.00,,,0.00,WUHU216HW,2013-04-02 12:30:00,
2013-04-02 08:35:00,35.6,14.8,29.67,WNW,293,7.4,7.4,42,0.00,,,0.00,WUHU216HW,2013-04-02 12:35:00,
2013-04-02 08:59:00,36.7,16.2,29.67,WNW,293,9.6,9.6,43,0.00,,,0.00,WUHU216HW,2013-04-02 12:59:00,
2013-04-02 09:05:00,36.7,16.2,29.67,WNW,293,9.6,9.6,43,0.00,,,0.00,WUHU216HW,2013-04-02 13:05:00,
2013-04-02 09:30:00,38.7,18.0,29.68,West,270,5.1,5.1,43,0.00,,,0.00,WUHU216HW,2013-04-02 13:30:00,
2013-04-02 09:35:00,38.7,18.0,29.68,West,270,5.1,5.1,43,0.00,,,0.00,WUHU216HW,2013-04-02 13:35:00,
2013-04-02 10:00:00,40.7,16.9,29.68,WSW,248,3.1,3.1,38,0.00,,,0.00,WUHU216HW,2013-04-02 14:00:00,
2013-04-02 10:05:00,40.7,16.9,29.68,WSW,248,3.1,3.1,38,0.00,,,0.00,WUHU216HW,2013-04-02 14:05:00,
2013-04-02 10:30:00,42.8,18.2,29.68,NW,315,5.6,5.6,37,0.00,,,0.00,WUHU216HW,2013-04-02 14:30:00,
2013-04-02 10:35:00,42.8,18.2,29.68,NW,315,5.6,5.6,37,0.00,,,0.00,WUHU216HW,2013-04-02 14:35:00,
2013-04-02 10:59:00,44.5,16.9,29.68,WNW,293,8.9,8.9,33,0.00,,,0.00,WUHU216HW,2013-04-02 14:59:00,
2013-04-02 11:05:00,44.5,16.9,29.68,WNW,293,8.9,8.9,33,0.00,,,0.00,WUHU216HW,2013-04-02 15:05:00,
2013-04-02 11:30:00,45.9,19.6,29.68,NW,315,4.7,4.7,35,0.00,,,0.00,WUHU216HW,2013-04-02 15:30:00,
2013-04-02 11:35:00,45.9,19.6,29.68,NW,315,4.7,4.7,35,0.00,,,0.00,WUHU216HW,2013-04-02 15:35:00,
2013-04-02 11:59:00,46.4,18.7,29.69,WNW,293,8.5,8.5,33,0.00,,,0.00,WUHU216HW,2013-04-02 15:59:00,
2013-04-02 12:04:00,46.4,18.7,29.69,WNW,293,8.5,8.5,33,0.00,,,0.00,WUHU216HW,2013-04-02 16:04:00,
2013-04-02 12:30:00,48.4,19.2,29.68,WNW,293,8.7,8.7,31,0.00,,,0.00,WUHU216HW,2013-04-02 16:30:00,
2013-04-02 12:35:00,48.4,19.2,29.68,WNW,293,8.7,8.7,31,0.00,,,0.00,WUHU216HW,2013-04-02 16:35:00,
2013-04-02 13:00:00,50.4,19.2,29.67,NW,315,5.1,5.1,29,0.00,,,0.00,WUHU216HW,2013-04-02 17:00:00,
2013-04-02 13:05:00,50.4,19.2,29.67,NW,315,5.1,5.1,29,0.00,,,0.00,WUHU216HW,2013-04-02 17:05:00,
2013-04-02 13:30:00,51.1,18.0,29.66,WNW,293,11.9,11.9,27,0.00,,,0.00,WUHU216HW,2013-04-02 17:30:00,
2013-04-02 13:35:00,51.1,18.0,29.66,WNW,293,11.9,11.9,27,0.00,,,0.00,WUHU216HW,2013-04-02 17:35:00,
2013-04-02 13:59:00,52.0,19.7,29.65,WNW,293,9.2,9.2,28,0.00,,,0.00,WUHU216HW,2013-04-02 17:59:00,
2013-04-02 14:05:00,52.0,19.7,29.65,WNW,293,9.2,9.2,28,0.00,,,0.00,WUHU216HW,2013-04-02 18:05:00,
2013-04-02 14:30:00,52.7,17.5,29.65,NW,315,3.8,3.8,25,0.00,,,0.00,WUHU216HW,2013-04-02 18:30:00,
2013-04-02 14:35:00,52.7,17.5,29.65,NW,315,3.8,3.8,25,0.00,,,0.00,WUHU216HW,2013-04-02 18:35:00,
2013-04-02 14:59:00,52.9,17.6,29.64,WNW,293,12.1,12.1,25,0.00,,,0.00,WUHU216HW,2013-04-02 18:59:00,
2013-04-02 15:04:00,52.9,17.6,29.64,WNW,293,12.1,12.1,25,0.00,,,0.00,WUHU216HW,2013-04-02 19:04:00,
2013-04-02 15:30:00,54.4,17.9,29.63,WNW,293,12.1,12.1,24,0.00,,,0.00,WUHU216HW,2013-04-02 19:30:00,
2013-04-02 15:35:00,54.4,17.9,29.63,WNW,293,12.1,12.1,24,0.00,,,0.00,WUHU216HW,2013-04-02 19:35:00,
2013-04-02 16:00:00,55.4,18.9,29.63,WNW,293,6.9,6.9,24,0.00,,,0.00,WUHU216HW,2013-04-02 20:00:00,
2013-04-02 16:05:00,55.4,18.9,29.63,WNW,293,6.9,6.9,24,0.00,,,0.00,WUHU216HW,2013-04-02 20:05:00,
2013-04-02 16:30:00,54.4,18.9,29.63,NW,315,8.5,8.5,25,0.00,,,0.00,WUHU216HW,2013-04-02 20:30:00,
2013-04-02 16:35:00,54.4,18.9,29.63,NW,315,8.5,8.5,25,0.00,,,0.00,WUHU216HW,2013-04-02 20:35:00,
2013-04-02 17:00:00,54.7,18.3,29.63,NW,315,8.1,8.1,24,0.00,,,0.00,WUHU216HW,2013-04-02 21:00:00,
2013-04-02 17:05:00,54.7,18.3,29.63,NW,315,8.1,8.1,24,0.00,,,0.00,WUHU216HW,2013-04-02 21:05:00,
2013-04-02 17:30:00,53.1,16.8,29.63,NNW,338,0.9,0.9,24,0.00,,,0.00,WUHU216HW,2013-04-02 21:30:00,
2013-04-02 17:35:00,53.1,16.8,29.63,NNW,338,0.9,0.9,24,0.00,,,0.00,WUHU216HW,2013-04-02 21:35:00,
2013-04-02 18:00:00,51.5,15.5,29.64,WNW,293,4.0,4.0,24,0.00,,,0.00,WUHU216HW,2013-04-02 22:00:00,
2013-04-02 18:05:00,51.5,15.5,29.64,WNW,293,4.0,4.0,24,0.00,,,0.00,WUHU216HW,2013-04-02 22:05:00,
2013-04-02 18:30:00,50.8,15.9,29.65,NW,315,12.1,12.1,25,0.00,,,0.00,WUHU216HW,2013-04-02 22:30:00,
2013-04-02 18:35:00,50.8,15.9,29.65,NW,315,12.1,12.1,25,0.00,,,0.00,WUHU216HW,2013-04-02 22:35:00,
2013-04-02 18:59:00,53.6,20.2,29.66,WNW,293,4.9,4.9,27,0.00,,,0.00,WUHU216HW,2013-04-02 22:59:00,
2013-04-02 19:04:00,53.6,20.2,29.66,WNW,293,4.9,4.9,27,0.00,,,0.00,WUHU216HW,2013-04-02 23:04:00,
2013-04-02 19:30:00,46.1,14.6,29.67,WNW,293,5.4,5.4,28,0.00,,,0.00,WUHU216HW,2013-04-02 23:30:00,
2013-04-02 19:35:00,46.1,14.6,29.67,WNW,293,5.4,5.4,28,0.00,,,0.00,WUHU216HW,2013-04-02 23:35:00,
2013-04-02 19:59:00,42.8,13.5,29.68,NW,315,3.4,3.4,30,0.00,,,0.00,WUHU216HW,2013-04-02 23:59:00,
2013-04-02 20:04:00,42.8,13.5,29.68,NW,315,3.4,3.4,30,0.00,,,0.00,WUHU216HW,2013-04-03 00:04:00,
2013-04-02 20:29:00,40.1,13.2,29.69,WNW,293,0.9,0.9,33,0.00,,,0.00,WUHU216HW,2013-04-03 00:29:00,
2013-04-02 20:30:00,40.1,13.2,29.69,WNW,293,0.9,0.9,33,0.00,,,0.00,WUHU216HW,2013-04-03 00:30:00,
2013-04-02 20:35:00,40.1,13.2,29.69,WNW,293,0.9,0.9,33,0.00,,,0.00,WUHU216HW,2013-04-03 00:35:00,
2013-04-02 20:59:00,38.2,14.1,29.70,WNW,293,0.0,0.0,37,0.00,,,0.00,WUHU216HW,2013-04-03 00:59:00,
2013-04-02 21:05:00,38.2,14.1,29.70,WNW,293,0.0,0.0,37,0.00,,,0.00,WUHU216HW,2013-04-03 01:05:00,
2013-04-02 21:30:00,36.2,12.9,29.71,WNW,293,0.0,0.0,38,0.00,,,0.00,WUHU216HW,2013-04-03 01:30:00,
2013-04-02 21:35:00,36.2,12.9,29.71,WNW,293,0.0,0.0,38,0.00,,,0.00,WUHU216HW,2013-04-03 01:35:00,
2013-04-02 21:59:00,34.6,12.7,29.72,WSW,248,0.0,0.0,40,0.00,,,0.00,WUHU216HW,2013-04-03 01:59:00,
2013-04-02 22:05:00,34.6,12.7,29.72,WSW,248,0.0,0.0,40,0.00,,,0.00,WUHU216HW,2013-04-03 02:05:00,
2013-04-02 22:30:00,33.5,12.2,29.73,West,270,0.0,0.0,41,0.00,,,0.00,WUHU216HW,2013-04-03 02:30:00,
2013-04-02 22:35:00,33.5,12.2,29.73,West,270,0.0,0.0,41,0.00,,,0.00,WUHU216HW,2013-04-03 02:35:00,
2013-04-02 23:00:00,32.8,13.2,29.73,WNW,293,0.0,0.0,44,0.00,,,0.00,WUHU216HW,2013-04-03 03:00:00,
2013-04-02 23:05:00,32.8,13.2,29.73,WNW,293,0.0,0.0,44,0.00,,,0.00,WUHU216HW,2013-04-03 03:05:00,
2013-04-02 23:30:00,31.7,12.6,29.73,SW,225,0.4,0.4,45,0.00,,,0.00,WUHU216HW,2013-04-03 03:30:00,
2013-04-02 23:35:00,31.7,12.6,29.73,SW,225,0.4,0.4,45,0.00,,,0.00,WUHU216HW,2013-04-03 03:35:00,
2013-04-02 23:59:00,29.9,12.5,29.73,West,270,0.7,0.7,48,0.00,,,0.00,WUHU216HW,2013-04-03 03:59:00,